sensor_id;sensor_type;location;lat;lon;timestamp;temperature;humidity
64987;DHT22;67903;52.108;9.358;2023-02-18T00:00:27;7.60;65.40
64987;DHT22;67903;52.108;9.358;2023-02-18T00:02:55;7.60;66.20
64987;DHT22;67903;52.108;9.358;2023-02-18T00:05:22;7.60;65.40
64987;DHT22;67903;52.108;9.358;2023-02-18T00:07:49;7.50;65.90
64987;DHT22;67903;52.108;9.358;2023-02-18T00:10:16;7.50;65.70
64987;DHT22;67903;52.108;9.358;2023-02-18T00:12:43;7.70;64.70
64987;DHT22;67903;52.108;9.358;2023-02-18T00:15:10;7.60;65.80
64987;DHT22;67903;52.108;9.358;2023-02-18T00:17:37;7.60;65.60
64987;DHT22;67903;52.108;9.358;2023-02-18T00:20:05;7.60;65.20
64987;DHT22;67903;52.108;9.358;2023-02-18T00:22:32;7.60;65.10
64987;DHT22;67903;52.108;9.358;2023-02-18T00:24:59;7.60;65.20
64987;DHT22;67903;52.108;9.358;2023-02-18T00:27:26;7.50;65.40
64987;DHT22;67903;52.108;9.358;2023-02-18T00:29:53;7.50;66.20
64987;DHT22;67903;52.108;9.358;2023-02-18T00:32:20;7.50;65.90
64987;DHT22;67903;52.108;9.358;2023-02-18T00:34:48;7.50;66.20
64987;DHT22;67903;52.108;9.358;2023-02-18T00:37:14;7.40;66.80
64987;DHT22;67903;52.108;9.358;2023-02-18T00:39:41;7.40;67.00
64987;DHT22;67903;52.108;9.358;2023-02-18T00:42:08;7.30;67.50
64987;DHT22;67903;52.108;9.358;2023-02-18T00:44:35;7.40;67.60
64987;DHT22;67903;52.108;9.358;2023-02-18T00:47:02;7.50;67.80
64987;DHT22;67903;52.108;9.358;2023-02-18T00:49:29;7.50;68.00
64987;DHT22;67903;52.108;9.358;2023-02-18T00:51:56;7.50;68.10
64987;DHT22;67903;52.108;9.358;2023-02-18T00:54:22;7.40;68.70
64987;DHT22;67903;52.108;9.358;2023-02-18T00:56:50;7.40;68.90
64987;DHT22;67903;52.108;9.358;2023-02-18T00:59:16;7.50;68.90
64987;DHT22;67903;52.108;9.358;2023-02-18T01:01:43;7.50;69.10
64987;DHT22;67903;52.108;9.358;2023-02-18T01:04:10;7.50;69.10
64987;DHT22;67903;52.108;9.358;2023-02-18T01:06:37;7.50;69.20
64987;DHT22;67903;52.108;9.358;2023-02-18T01:09:05;7.50;69.40
64987;DHT22;67903;52.108;9.358;2023-02-18T01:11:32;7.60;69.60
64987;DHT22;67903;52.108;9.358;2023-02-18T01:13:59;7.60;69.60
64987;DHT22;67903;52.108;9.358;2023-02-18T01:16:28;7.60;70.00
64987;DHT22;67903;52.108;9.358;2023-02-18T01:18:55;7.60;70.00
64987;DHT22;67903;52.108;9.358;2023-02-18T01:21:24;7.60;70.50
64987;DHT22;67903;52.108;9.358;2023-02-18T01:23:51;7.60;70.70
64987;DHT22;67903;52.108;9.358;2023-02-18T01:26:18;7.50;71.50
64987;DHT22;67903;52.108;9.358;2023-02-18T01:28:45;7.30;71.70
64987;DHT22;67903;52.108;9.358;2023-02-18T01:31:13;7.20;72.00
64987;DHT22;67903;52.108;9.358;2023-02-18T01:33:41;7.40;71.60
64987;DHT22;67903;52.108;9.358;2023-02-18T01:36:11;7.40;72.10
64987;DHT22;67903;52.108;9.358;2023-02-18T01:38:39;7.50;72.30
64987;DHT22;67903;52.108;9.358;2023-02-18T01:41:06;7.50;72.50
64987;DHT22;67903;52.108;9.358;2023-02-18T01:43:34;7.50;72.90
64987;DHT22;67903;52.108;9.358;2023-02-18T01:48:47;7.50;73.60
64987;DHT22;67903;52.108;9.358;2023-02-18T01:51:16;7.60;73.40
64987;DHT22;67903;52.108;9.358;2023-02-18T01:53:46;7.60;74.10
64987;DHT22;67903;52.108;9.358;2023-02-18T01:56:22;7.70;74.00
64987;DHT22;67903;52.108;9.358;2023-02-18T01:58:52;7.70;74.30
64987;DHT22;67903;52.108;9.358;2023-02-18T02:01:19;7.70;74.50
64987;DHT22;67903;52.108;9.358;2023-02-18T02:03:46;7.70;74.60
64987;DHT22;67903;52.108;9.358;2023-02-18T02:06:18;7.60;75.30
64987;DHT22;67903;52.108;9.358;2023-02-18T02:08:50;7.60;75.70
64987;DHT22;67903;52.108;9.358;2023-02-18T02:17:02;8.00;75.50
64987;DHT22;67903;52.108;9.358;2023-02-18T02:36:47;8.00;77.20
64987;DHT22;67903;52.108;9.358;2023-02-18T02:39:36;8.00;77.40
64987;DHT22;67903;52.108;9.358;2023-02-18T02:47:48;7.90;78.40
64987;DHT22;67903;52.108;9.358;2023-02-18T02:50:24;8.00;78.40
64987;DHT22;67903;52.108;9.358;2023-02-18T02:52:57;7.90;78.70
64987;DHT22;67903;52.108;9.358;2023-02-18T02:55:25;8.00;78.70
64987;DHT22;67903;52.108;9.358;2023-02-18T02:57:55;8.00;78.80
64987;DHT22;67903;52.108;9.358;2023-02-18T03:03:18;7.80;79.40
64987;DHT22;67903;52.108;9.358;2023-02-18T03:06:05;7.80;79.10
64987;DHT22;67903;52.108;9.358;2023-02-18T03:08:49;7.80;79.60
64987;DHT22;67903;52.108;9.358;2023-02-18T03:11:17;8.00;79.30
64987;DHT22;67903;52.108;9.358;2023-02-18T03:13:55;8.00;79.30
64987;DHT22;67903;52.108;9.358;2023-02-18T03:16:49;8.00;79.00
64987;DHT22;67903;52.108;9.358;2023-02-18T03:22:02;7.80;79.30
64987;DHT22;67903;52.108;9.358;2023-02-18T03:24:40;7.80;79.40
64987;DHT22;67903;52.108;9.358;2023-02-18T03:32:47;7.60;80.70
64987;DHT22;67903;52.108;9.358;2023-02-18T03:35:16;7.80;80.00
64987;DHT22;67903;52.108;9.358;2023-02-18T03:37:49;7.90;79.80
64987;DHT22;67903;52.108;9.358;2023-02-18T03:40:17;7.80;79.90
64987;DHT22;67903;52.108;9.358;2023-02-18T03:42:44;7.80;80.50
64987;DHT22;67903;52.108;9.358;2023-02-18T03:45:11;7.60;81.00
64987;DHT22;67903;52.108;9.358;2023-02-18T03:47:40;7.60;81.70
64987;DHT22;67903;52.108;9.358;2023-02-18T03:50:07;7.60;82.10
64987;DHT22;67903;52.108;9.358;2023-02-18T03:52:34;7.60;82.80
64987;DHT22;67903;52.108;9.358;2023-02-18T03:55:05;7.60;83.00
64987;DHT22;67903;52.108;9.358;2023-02-18T03:57:32;7.60;83.40
64987;DHT22;67903;52.108;9.358;2023-02-18T03:59:59;7.60;83.70
64987;DHT22;67903;52.108;9.358;2023-02-18T04:02:26;7.50;84.00
64987;DHT22;67903;52.108;9.358;2023-02-18T04:04:53;7.50;84.20
64987;DHT22;67903;52.108;9.358;2023-02-18T04:07:19;7.50;84.60
64987;DHT22;67903;52.108;9.358;2023-02-18T04:09:46;7.50;85.00
64987;DHT22;67903;52.108;9.358;2023-02-18T04:12:13;7.50;85.00
64987;DHT22;67903;52.108;9.358;2023-02-18T04:14:40;7.50;85.10
64987;DHT22;67903;52.108;9.358;2023-02-18T04:17:07;7.50;85.40
64987;DHT22;67903;52.108;9.358;2023-02-18T04:19:34;7.50;85.50
64987;DHT22;67903;52.108;9.358;2023-02-18T04:22:01;7.50;85.70
64987;DHT22;67903;52.108;9.358;2023-02-18T04:24:28;7.50;85.80
64987;DHT22;67903;52.108;9.358;2023-02-18T04:26:54;7.50;86.10
64987;DHT22;67903;52.108;9.358;2023-02-18T04:29:21;7.50;86.30
64987;DHT22;67903;52.108;9.358;2023-02-18T04:31:48;7.50;86.60
64987;DHT22;67903;52.108;9.358;2023-02-18T04:34:14;7.50;87.10
64987;DHT22;67903;52.108;9.358;2023-02-18T04:36:41;7.50;87.20
64987;DHT22;67903;52.108;9.358;2023-02-18T04:39:08;7.50;87.40
64987;DHT22;67903;52.108;9.358;2023-02-18T04:41:35;7.50;87.70
64987;DHT22;67903;52.108;9.358;2023-02-18T04:44:02;7.60;87.80
64987;DHT22;67903;52.108;9.358;2023-02-18T04:46:29;7.50;88.00
64987;DHT22;67903;52.108;9.358;2023-02-18T04:48:56;7.50;88.60
64987;DHT22;67903;52.108;9.358;2023-02-18T04:51:23;7.60;88.60
64987;DHT22;67903;52.108;9.358;2023-02-18T04:53:50;7.80;88.60
64987;DHT22;67903;52.108;9.358;2023-02-18T04:56:17;7.80;88.40
64987;DHT22;67903;52.108;9.358;2023-02-18T04:58:44;7.80;88.20
64987;DHT22;67903;52.108;9.358;2023-02-18T05:01:11;8.00;88.10
64987;DHT22;67903;52.108;9.358;2023-02-18T05:03:38;7.80;87.80
64987;DHT22;67903;52.108;9.358;2023-02-18T05:06:05;7.80;88.40
64987;DHT22;67903;52.108;9.358;2023-02-18T05:08:33;7.70;88.90
64987;DHT22;67903;52.108;9.358;2023-02-18T05:10:59;7.60;89.30
64987;DHT22;67903;52.108;9.358;2023-02-18T05:13:30;7.50;89.70
64987;DHT22;67903;52.108;9.358;2023-02-18T05:15:57;7.60;90.00
64987;DHT22;67903;52.108;9.358;2023-02-18T05:18:23;7.60;90.10
64987;DHT22;67903;52.108;9.358;2023-02-18T05:20:50;7.60;90.30
64987;DHT22;67903;52.108;9.358;2023-02-18T05:23:17;7.60;90.50
64987;DHT22;67903;52.108;9.358;2023-02-18T05:25:46;7.60;90.70
64987;DHT22;67903;52.108;9.358;2023-02-18T05:28:12;7.60;91.00
64987;DHT22;67903;52.108;9.358;2023-02-18T05:30:39;7.60;91.20
64987;DHT22;67903;52.108;9.358;2023-02-18T05:33:06;7.80;91.20
64987;DHT22;67903;52.108;9.358;2023-02-18T05:35:33;7.70;91.20
64987;DHT22;67903;52.108;9.358;2023-02-18T05:37:59;7.60;91.40
64987;DHT22;67903;52.108;9.358;2023-02-18T05:40:26;7.60;91.60
64987;DHT22;67903;52.108;9.358;2023-02-18T05:42:53;7.60;91.70
64987;DHT22;67903;52.108;9.358;2023-02-18T05:45:19;7.50;91.90
64987;DHT22;67903;52.108;9.358;2023-02-18T05:47:46;7.50;92.00
64987;DHT22;67903;52.108;9.358;2023-02-18T05:50:13;7.50;92.10
64987;DHT22;67903;52.108;9.358;2023-02-18T05:52:40;7.60;92.20
64987;DHT22;67903;52.108;9.358;2023-02-18T05:55:07;7.50;92.30
64987;DHT22;67903;52.108;9.358;2023-02-18T05:57:33;7.50;92.40
64987;DHT22;67903;52.108;9.358;2023-02-18T06:00:00;7.60;92.40
64987;DHT22;67903;52.108;9.358;2023-02-18T06:02:30;7.60;92.50
64987;DHT22;67903;52.108;9.358;2023-02-18T06:04:57;7.60;92.50
64987;DHT22;67903;52.108;9.358;2023-02-18T06:07:23;7.60;92.50
64987;DHT22;67903;52.108;9.358;2023-02-18T06:09:50;7.60;92.60
64987;DHT22;67903;52.108;9.358;2023-02-18T06:12:17;7.60;92.60
64987;DHT22;67903;52.108;9.358;2023-02-18T06:14:44;7.60;92.60
64987;DHT22;67903;52.108;9.358;2023-02-18T06:17:12;7.60;92.80
64987;DHT22;67903;52.108;9.358;2023-02-18T06:19:39;7.70;92.70
64987;DHT22;67903;52.108;9.358;2023-02-18T06:22:06;7.70;92.80
64987;DHT22;67903;52.108;9.358;2023-02-18T06:24:33;7.80;92.90
64987;DHT22;67903;52.108;9.358;2023-02-18T06:27:00;7.80;92.90
64987;DHT22;67903;52.108;9.358;2023-02-18T06:29:27;7.80;93.00
64987;DHT22;67903;52.108;9.358;2023-02-18T06:31:56;7.80;93.00
64987;DHT22;67903;52.108;9.358;2023-02-18T06:34:25;8.00;93.10
64987;DHT22;67903;52.108;9.358;2023-02-18T06:36:52;8.00;93.10
64987;DHT22;67903;52.108;9.358;2023-02-18T06:39:18;8.00;93.00
64987;DHT22;67903;52.108;9.358;2023-02-18T06:41:45;8.10;93.20
64987;DHT22;67903;52.108;9.358;2023-02-18T06:44:12;8.20;93.20
64987;DHT22;67903;52.108;9.358;2023-02-18T06:46:40;8.30;93.40
64987;DHT22;67903;52.108;9.358;2023-02-18T06:49:07;8.60;93.60
64987;DHT22;67903;52.108;9.358;2023-02-18T06:51:34;8.90;93.70
64987;DHT22;67903;52.108;9.358;2023-02-18T06:54:01;9.00;93.20
64987;DHT22;67903;52.108;9.358;2023-02-18T06:56:28;9.00;92.90
64987;DHT22;67903;52.108;9.358;2023-02-18T06:58:56;9.00;92.60
64987;DHT22;67903;52.108;9.358;2023-02-18T07:01:23;9.00;92.40
64987;DHT22;67903;52.108;9.358;2023-02-18T07:03:50;9.20;91.30
64987;DHT22;67903;52.108;9.358;2023-02-18T07:06:16;9.20;90.90
64987;DHT22;67903;52.108;9.358;2023-02-18T07:08:43;9.20;90.70
64987;DHT22;67903;52.108;9.358;2023-02-18T07:11:10;9.10;90.90
64987;DHT22;67903;52.108;9.358;2023-02-18T07:13:37;9.20;90.80
64987;DHT22;67903;52.108;9.358;2023-02-18T07:16:04;9.20;90.40
64987;DHT22;67903;52.108;9.358;2023-02-18T07:18:30;9.40;90.10
64987;DHT22;67903;52.108;9.358;2023-02-18T07:20:57;9.40;89.60
64987;DHT22;67903;52.108;9.358;2023-02-18T07:23:24;9.40;89.70
64987;DHT22;67903;52.108;9.358;2023-02-18T07:25:51;9.40;89.80
64987;DHT22;67903;52.108;9.358;2023-02-18T07:28:18;9.50;89.10
64987;DHT22;67903;52.108;9.358;2023-02-18T07:30:44;9.50;88.90
64987;DHT22;67903;52.108;9.358;2023-02-18T07:33:11;9.50;88.90
64987;DHT22;67903;52.108;9.358;2023-02-18T07:35:39;9.60;88.50
64987;DHT22;67903;52.108;9.358;2023-02-18T07:38:06;9.60;88.40
64987;DHT22;67903;52.108;9.358;2023-02-18T07:40:34;9.60;88.00
64987;DHT22;67903;52.108;9.358;2023-02-18T07:43:01;9.60;88.00
64987;DHT22;67903;52.108;9.358;2023-02-18T07:45:28;9.60;88.10
64987;DHT22;67903;52.108;9.358;2023-02-18T07:47:54;9.70;88.00
64987;DHT22;67903;52.108;9.358;2023-02-18T07:50:21;9.70;87.60
64987;DHT22;67903;52.108;9.358;2023-02-18T07:52:48;9.70;87.70
64987;DHT22;67903;52.108;9.358;2023-02-18T07:55:15;9.70;87.90
64987;DHT22;67903;52.108;9.358;2023-02-18T07:57:42;9.70;88.20
64987;DHT22;67903;52.108;9.358;2023-02-18T08:00:23;9.70;88.20
64987;DHT22;67903;52.108;9.358;2023-02-18T08:02:50;9.60;88.70
64987;DHT22;67903;52.108;9.358;2023-02-18T08:05:17;9.60;88.80
64987;DHT22;67903;52.108;9.358;2023-02-18T08:07:44;9.70;88.70
64987;DHT22;67903;52.108;9.358;2023-02-18T08:10:10;9.60;89.00
64987;DHT22;67903;52.108;9.358;2023-02-18T08:12:37;9.70;88.70
64987;DHT22;67903;52.108;9.358;2023-02-18T08:15:04;9.60;88.90
64987;DHT22;67903;52.108;9.358;2023-02-18T08:17:31;9.70;88.90
64987;DHT22;67903;52.108;9.358;2023-02-18T08:19:58;9.70;88.30
64987;DHT22;67903;52.108;9.358;2023-02-18T08:22:25;9.80;88.20
64987;DHT22;67903;52.108;9.358;2023-02-18T08:24:54;9.70;88.40
64987;DHT22;67903;52.108;9.358;2023-02-18T08:27:22;9.70;88.40
64987;DHT22;67903;52.108;9.358;2023-02-18T08:29:49;9.80;87.80
64987;DHT22;67903;52.108;9.358;2023-02-18T08:32:16;9.80;88.10
64987;DHT22;67903;52.108;9.358;2023-02-18T08:34:43;9.80;88.20
64987;DHT22;67903;52.108;9.358;2023-02-18T08:37:10;9.80;88.10
64987;DHT22;67903;52.108;9.358;2023-02-18T08:39:37;9.80;87.70
64987;DHT22;67903;52.108;9.358;2023-02-18T08:42:05;9.80;87.80
64987;DHT22;67903;52.108;9.358;2023-02-18T08:44:32;9.90;87.40
64987;DHT22;67903;52.108;9.358;2023-02-18T08:46:59;10.00;87.20
64987;DHT22;67903;52.108;9.358;2023-02-18T08:49:26;9.80;87.90
64987;DHT22;67903;52.108;9.358;2023-02-18T08:51:53;9.80;89.60
64987;DHT22;67903;52.108;9.358;2023-02-18T08:54:20;9.60;91.50
64987;DHT22;67903;52.108;9.358;2023-02-18T08:56:47;9.50;92.50
64987;DHT22;67903;52.108;9.358;2023-02-18T08:59:13;9.50;92.50
64987;DHT22;67903;52.108;9.358;2023-02-18T09:01:40;9.50;92.00
64987;DHT22;67903;52.108;9.358;2023-02-18T09:04:07;9.50;92.80
64987;DHT22;67903;52.108;9.358;2023-02-18T09:06:37;9.50;93.60
64987;DHT22;67903;52.108;9.358;2023-02-18T09:09:04;9.50;93.30
64987;DHT22;67903;52.108;9.358;2023-02-18T09:11:31;9.50;93.70
64987;DHT22;67903;52.108;9.358;2023-02-18T09:13:58;9.50;93.20
64987;DHT22;67903;52.108;9.358;2023-02-18T09:16:25;9.50;93.20
64987;DHT22;67903;52.108;9.358;2023-02-18T09:18:53;9.50;92.80
64987;DHT22;67903;52.108;9.358;2023-02-18T09:21:21;9.50;93.30
64987;DHT22;67903;52.108;9.358;2023-02-18T09:23:49;9.50;92.40
64987;DHT22;67903;52.108;9.358;2023-02-18T09:26:18;9.60;91.20
64987;DHT22;67903;52.108;9.358;2023-02-18T09:28:49;9.60;91.00
64987;DHT22;67903;52.108;9.358;2023-02-18T09:31:20;9.60;91.30
64987;DHT22;67903;52.108;9.358;2023-02-18T09:33:49;9.70;89.60
64987;DHT22;67903;52.108;9.358;2023-02-18T09:36:17;9.80;88.70
64987;DHT22;67903;52.108;9.358;2023-02-18T09:38:44;9.80;88.70
64987;DHT22;67903;52.108;9.358;2023-02-18T09:44:12;10.00;87.80
64987;DHT22;67903;52.108;9.358;2023-02-18T09:46:45;10.00;87.60
64987;DHT22;67903;52.108;9.358;2023-02-18T09:49:17;9.90;87.60
64987;DHT22;67903;52.108;9.358;2023-02-18T09:51:45;9.90;87.80
64987;DHT22;67903;52.108;9.358;2023-02-18T09:54:14;10.00;87.10
64987;DHT22;67903;52.108;9.358;2023-02-18T09:56:43;10.00;86.80
64987;DHT22;67903;52.108;9.358;2023-02-18T09:59:15;10.10;85.90
64987;DHT22;67903;52.108;9.358;2023-02-18T10:01:44;10.00;86.40
64987;DHT22;67903;52.108;9.358;2023-02-18T10:04:17;10.10;85.90
64987;DHT22;67903;52.108;9.358;2023-02-18T10:06:46;10.10;85.50
64987;DHT22;67903;52.108;9.358;2023-02-18T10:09:36;10.20;84.70
64987;DHT22;67903;52.108;9.358;2023-02-18T10:12:14;10.20;85.30
64987;DHT22;67903;52.108;9.358;2023-02-18T10:14:50;10.20;85.30
64987;DHT22;67903;52.108;9.358;2023-02-18T10:17:18;10.10;85.50
64987;DHT22;67903;52.108;9.358;2023-02-18T10:19:47;10.10;86.10
64987;DHT22;67903;52.108;9.358;2023-02-18T10:22:16;10.10;86.30
64987;DHT22;67903;52.108;9.358;2023-02-18T10:24:53;10.10;86.30
64987;DHT22;67903;52.108;9.358;2023-02-18T10:27:36;10.10;86.90
64987;DHT22;67903;52.108;9.358;2023-02-18T10:30:26;10.00;86.50
64987;DHT22;67903;52.108;9.358;2023-02-18T10:33:00;10.00;86.40
64987;DHT22;67903;52.108;9.358;2023-02-18T10:35:52;10.00;87.50
64987;DHT22;67903;52.108;9.358;2023-02-18T10:44:23;10.00;86.60
64987;DHT22;67903;52.108;9.358;2023-02-18T10:49:58;10.00;85.50
64987;DHT22;67903;52.108;9.358;2023-02-18T10:52:46;10.10;85.20
64987;DHT22;67903;52.108;9.358;2023-02-18T10:55:16;10.10;85.00
64987;DHT22;67903;52.108;9.358;2023-02-18T10:57:51;10.00;85.30
64987;DHT22;67903;52.108;9.358;2023-02-18T11:00:21;10.00;85.70
64987;DHT22;67903;52.108;9.358;2023-02-18T11:03:15;10.00;85.10
64987;DHT22;67903;52.108;9.358;2023-02-18T11:05:44;10.00;84.80
64987;DHT22;67903;52.108;9.358;2023-02-18T11:08:17;10.00;84.40
64987;DHT22;67903;52.108;9.358;2023-02-18T11:10:45;10.00;84.40
64987;DHT22;67903;52.108;9.358;2023-02-18T11:13:15;10.10;84.10
64987;DHT22;67903;52.108;9.358;2023-02-18T11:15:54;10.10;82.70
64987;DHT22;67903;52.108;9.358;2023-02-18T11:21:01;10.00;83.40
64987;DHT22;67903;52.108;9.358;2023-02-18T11:23:28;10.00;84.20
64987;DHT22;67903;52.108;9.358;2023-02-18T11:26:02;10.00;84.20
64987;DHT22;67903;52.108;9.358;2023-02-18T11:28:43;9.90;83.80
64987;DHT22;67903;52.108;9.358;2023-02-18T11:31:26;9.80;84.10
64987;DHT22;67903;52.108;9.358;2023-02-18T11:33:58;9.80;84.80
64987;DHT22;67903;52.108;9.358;2023-02-18T11:36:35;9.80;85.10
64987;DHT22;67903;52.108;9.358;2023-02-18T11:39:27;9.80;84.50
64987;DHT22;67903;52.108;9.358;2023-02-18T11:41:56;9.80;83.80
64987;DHT22;67903;52.108;9.358;2023-02-18T11:44:33;9.80;84.50
64987;DHT22;67903;52.108;9.358;2023-02-18T11:47:22;10.00;84.20
64987;DHT22;67903;52.108;9.358;2023-02-18T11:55:20;9.80;84.20
64987;DHT22;67903;52.108;9.358;2023-02-18T11:57:59;9.70;85.20
64987;DHT22;67903;52.108;9.358;2023-02-18T12:00:45;9.60;85.30
64987;DHT22;67903;52.108;9.358;2023-02-18T12:05:49;9.50;86.80
64987;DHT22;67903;52.108;9.358;2023-02-18T12:08:27;9.60;86.70
64987;DHT22;67903;52.108;9.358;2023-02-18T12:11:00;9.50;86.50
64987;DHT22;67903;52.108;9.358;2023-02-18T12:16:29;9.50;86.80
64987;DHT22;67903;52.108;9.358;2023-02-18T12:19:17;9.50;86.40
64987;DHT22;67903;52.108;9.358;2023-02-18T12:22:10;9.50;86.90
64987;DHT22;67903;52.108;9.358;2023-02-18T12:30:59;9.40;87.60
64987;DHT22;67903;52.108;9.358;2023-02-18T12:42:26;9.50;85.80
64987;DHT22;67903;52.108;9.358;2023-02-18T12:46:03;9.40;86.10
64987;DHT22;67903;52.108;9.358;2023-02-18T12:57:06;9.20;87.60
64987;DHT22;67903;52.108;9.358;2023-02-18T13:02:51;9.30;86.70
64987;DHT22;67903;52.108;9.358;2023-02-18T13:13:57;9.50;86.30
64987;DHT22;67903;52.108;9.358;2023-02-18T13:16:27;9.50;85.50
64987;DHT22;67903;52.108;9.358;2023-02-18T13:21:52;9.50;86.30
64987;DHT22;67903;52.108;9.358;2023-02-18T13:24:36;9.50;86.30
64987;DHT22;67903;52.108;9.358;2023-02-18T13:27:17;9.50;86.80
64987;DHT22;67903;52.108;9.358;2023-02-18T13:30:08;9.50;85.90
64987;DHT22;67903;52.108;9.358;2023-02-18T13:36:31;9.60;86.60
64987;DHT22;67903;52.108;9.358;2023-02-18T13:38:39;9.50;86.90
64987;DHT22;67903;52.108;9.358;2023-02-18T13:41:13;9.60;85.70
64987;DHT22;67903;52.108;9.358;2023-02-18T13:43:41;9.70;85.10
64987;DHT22;67903;52.108;9.358;2023-02-18T13:59:21;9.60;86.40
64987;DHT22;67903;52.108;9.358;2023-02-18T14:01:50;9.50;86.50
64987;DHT22;67903;52.108;9.358;2023-02-18T14:10:05;9.50;86.80
64987;DHT22;67903;52.108;9.358;2023-02-18T14:12:46;9.50;87.00
64987;DHT22;67903;52.108;9.358;2023-02-18T14:26:04;9.60;86.50
64987;DHT22;67903;52.108;9.358;2023-02-18T14:40:19;9.40;87.20
64987;DHT22;67903;52.108;9.358;2023-02-18T14:43:03;9.50;85.70
64987;DHT22;67903;52.108;9.358;2023-02-18T14:51:27;9.60;85.80
64987;DHT22;67903;52.108;9.358;2023-02-18T14:53:55;9.50;86.00
64987;DHT22;67903;52.108;9.358;2023-02-18T14:56:22;9.50;85.80
64987;DHT22;67903;52.108;9.358;2023-02-18T14:59:01;9.60;85.20
64987;DHT22;67903;52.108;9.358;2023-02-18T15:01:31;9.60;85.60
64987;DHT22;67903;52.108;9.358;2023-02-18T15:03:59;9.50;85.40
64987;DHT22;67903;52.108;9.358;2023-02-18T15:06:37;9.60;85.10
64987;DHT22;67903;52.108;9.358;2023-02-18T15:09:17;9.60;85.50
64987;DHT22;67903;52.108;9.358;2023-02-18T15:11:48;9.50;85.20
64987;DHT22;67903;52.108;9.358;2023-02-18T15:14:22;9.50;85.80
64987;DHT22;67903;52.108;9.358;2023-02-18T15:16:50;9.50;85.80
64987;DHT22;67903;52.108;9.358;2023-02-18T15:19:21;9.50;85.60
64987;DHT22;67903;52.108;9.358;2023-02-18T15:21:50;9.50;86.00
64987;DHT22;67903;52.108;9.358;2023-02-18T15:24:37;9.50;85.70
64987;DHT22;67903;52.108;9.358;2023-02-18T15:27:11;9.50;85.80
64987;DHT22;67903;52.108;9.358;2023-02-18T15:29:39;9.40;86.50
64987;DHT22;67903;52.108;9.358;2023-02-18T15:34:42;9.40;86.00
64987;DHT22;67903;52.108;9.358;2023-02-18T15:37:12;9.40;86.50
64987;DHT22;67903;52.108;9.358;2023-02-18T15:39:41;9.50;84.90
64987;DHT22;67903;52.108;9.358;2023-02-18T15:45:17;9.50;85.30
64987;DHT22;67903;52.108;9.358;2023-02-18T15:47:53;9.50;85.60
64987;DHT22;67903;52.108;9.358;2023-02-18T15:50:35;9.50;84.80
64987;DHT22;67903;52.108;9.358;2023-02-18T15:53:10;9.60;84.30
64987;DHT22;67903;52.108;9.358;2023-02-18T15:55:41;9.60;84.30
64987;DHT22;67903;52.108;9.358;2023-02-18T15:58:15;9.60;83.80
64987;DHT22;67903;52.108;9.358;2023-02-18T16:00:55;9.70;83.50
64987;DHT22;67903;52.108;9.358;2023-02-18T16:03:45;9.70;82.70
64987;DHT22;67903;52.108;9.358;2023-02-18T16:06:23;9.80;82.10
64987;DHT22;67903;52.108;9.358;2023-02-18T16:11:40;9.80;81.80
64987;DHT22;67903;52.108;9.358;2023-02-18T16:14:32;9.80;82.20
64987;DHT22;67903;52.108;9.358;2023-02-18T16:25:44;9.60;84.50
64987;DHT22;67903;52.108;9.358;2023-02-18T16:30:26;9.50;84.70
64987;DHT22;67903;52.108;9.358;2023-02-18T16:32:54;9.50;83.90
64987;DHT22;67903;52.108;9.358;2023-02-18T16:35:22;9.60;83.40
64987;DHT22;67903;52.108;9.358;2023-02-18T16:37:49;9.60;83.30
64987;DHT22;67903;52.108;9.358;2023-02-18T16:42:49;9.60;84.00
64987;DHT22;67903;52.108;9.358;2023-02-18T16:45:17;9.60;83.70
64987;DHT22;67903;52.108;9.358;2023-02-18T16:47:46;9.60;83.80
64987;DHT22;67903;52.108;9.358;2023-02-18T16:50:17;9.60;83.70
64987;DHT22;67903;52.108;9.358;2023-02-18T16:52:45;9.50;84.10
64987;DHT22;67903;52.108;9.358;2023-02-18T16:55:17;9.50;83.60
64987;DHT22;67903;52.108;9.358;2023-02-18T16:57:45;9.60;83.40
64987;DHT22;67903;52.108;9.358;2023-02-18T17:00:16;9.60;83.70
64987;DHT22;67903;52.108;9.358;2023-02-18T17:02:45;9.60;83.10
64987;DHT22;67903;52.108;9.358;2023-02-18T17:05:33;9.60;82.90
64987;DHT22;67903;52.108;9.358;2023-02-18T17:08:26;9.60;83.30
64987;DHT22;67903;52.108;9.358;2023-02-18T17:10:55;9.60;82.80
64987;DHT22;67903;52.108;9.358;2023-02-18T17:13:27;9.60;82.80
64987;DHT22;67903;52.108;9.358;2023-02-18T17:15:55;9.60;82.90
64987;DHT22;67903;52.108;9.358;2023-02-18T17:18:23;9.60;82.00
64987;DHT22;67903;52.108;9.358;2023-02-18T17:20:52;9.70;82.40
64987;DHT22;67903;52.108;9.358;2023-02-18T17:23:22;9.70;81.60
64987;DHT22;67903;52.108;9.358;2023-02-18T17:25:50;9.70;82.10
64987;DHT22;67903;52.108;9.358;2023-02-18T17:28:18;9.70;81.10
64987;DHT22;67903;52.108;9.358;2023-02-18T17:30:52;9.70;81.40
64987;DHT22;67903;52.108;9.358;2023-02-18T17:33:22;9.70;81.50
64987;DHT22;67903;52.108;9.358;2023-02-18T17:35:51;9.70;81.30
64987;DHT22;67903;52.108;9.358;2023-02-18T17:38:18;9.70;81.50
64987;DHT22;67903;52.108;9.358;2023-02-18T17:40:45;9.70;81.40
64987;DHT22;67903;52.108;9.358;2023-02-18T17:43:15;9.80;81.00
64987;DHT22;67903;52.108;9.358;2023-02-18T17:45:47;9.80;81.40
64987;DHT22;67903;52.108;9.358;2023-02-18T17:48:15;9.70;82.00
64987;DHT22;67903;52.108;9.358;2023-02-18T17:50:42;9.70;80.70
64987;DHT22;67903;52.108;9.358;2023-02-18T17:53:13;9.80;80.60
64987;DHT22;67903;52.108;9.358;2023-02-18T17:55:40;9.80;80.70
64987;DHT22;67903;52.108;9.358;2023-02-18T17:58:09;9.80;80.20
64987;DHT22;67903;52.108;9.358;2023-02-18T18:00:49;9.80;80.10
64987;DHT22;67903;52.108;9.358;2023-02-18T18:03:16;9.80;80.30
64987;DHT22;67903;52.108;9.358;2023-02-18T18:05:45;9.80;80.50
64987;DHT22;67903;52.108;9.358;2023-02-18T18:08:15;9.80;80.80
64987;DHT22;67903;52.108;9.358;2023-02-18T18:11:00;9.80;80.90
64987;DHT22;67903;52.108;9.358;2023-02-18T18:13:29;9.80;81.30
64987;DHT22;67903;52.108;9.358;2023-02-18T18:15:58;9.70;81.80
64987;DHT22;67903;52.108;9.358;2023-02-18T18:18:26;9.70;82.60
64987;DHT22;67903;52.108;9.358;2023-02-18T18:20:56;9.60;82.50
64987;DHT22;67903;52.108;9.358;2023-02-18T18:23:23;9.70;82.40
64987;DHT22;67903;52.108;9.358;2023-02-18T18:25:54;9.50;82.90
64987;DHT22;67903;52.108;9.358;2023-02-18T18:28:22;9.50;83.00
64987;DHT22;67903;52.108;9.358;2023-02-18T18:30:51;9.60;82.50
64987;DHT22;67903;52.108;9.358;2023-02-18T18:33:21;9.70;81.80
64987;DHT22;67903;52.108;9.358;2023-02-18T18:35:51;9.70;82.00
64987;DHT22;67903;52.108;9.358;2023-02-18T18:38:19;9.60;81.60
64987;DHT22;67903;52.108;9.358;2023-02-18T18:40:47;9.60;81.70
64987;DHT22;67903;52.108;9.358;2023-02-18T18:43:26;9.70;81.60
64987;DHT22;67903;52.108;9.358;2023-02-18T18:45:55;9.60;81.40
64987;DHT22;67903;52.108;9.358;2023-02-18T18:48:23;9.70;81.40
64987;DHT22;67903;52.108;9.358;2023-02-18T18:50:51;9.70;81.00
64987;DHT22;67903;52.108;9.358;2023-02-18T18:53:23;9.70;81.10
64987;DHT22;67903;52.108;9.358;2023-02-18T18:55:52;9.60;81.60
64987;DHT22;67903;52.108;9.358;2023-02-18T18:58:19;9.50;82.00
64987;DHT22;67903;52.108;9.358;2023-02-18T19:00:48;9.50;81.70
64987;DHT22;67903;52.108;9.358;2023-02-18T19:03:17;9.60;81.20